Fairfield, CT (06824)

7:37 AM EDT on April 21, 2015 (GMT -0400)
Fairfield Center | | Change Station
CLOSE
Current Station
Personal Weather Station
Location: Fairfield, CT
Elevation: 26 ft
Nearby Weather Stations

Elev 26 ft 41.14 °N, 73.26 °W | Updated 6 minutes ago

Fog
Fog
51.3 °F
Feels Like 51.3 °F
N
1.0
Wind Variable Wind from WSW
Gusts 3.0 mph

Today
High -- | Low -- °F
--% Chance of Precip.
Yesterday
High -- | Low -- °F
Precip. -- in
6:05 AM 7:39 PM
Waxing Crescent, 10% visible
Pressure 29.58 in
Visibility 0.2 miles
Clouds
Dew Point 51 °F
Humidity 99%
Rainfall 0.28 in
Snow Depth Not available.
UV Not available.
Pollen 6.00 out of 12
Air Quality Not available.
Flu Activity Widespread
METAR KBDR 211052Z 24004KT M1/4SM FG VV002 09/09 A2958 RMK AO2 SLP015 T00940089

More Conditions Fewer Conditions

Pressure 29.58 in
Visibility 0.2 miles
Clouds
Dew Point 51 °F
Humidity 99%
Rainfall 0.28 in
Snow Depth Not available.
UV Not available.
Pollen 6.00 out of 12
Air Quality Not available.
Flu Activity Widespread
METAR KBDR 211052Z 24004KT M1/4SM FG VV002 09/09 A2958 RMK AO2 SLP015 T00940089

More Conditions Fewer Conditions

10-Day Weather Forecast

Almanac

Astronomy

Apr. 21, 2015 Rise Set
Actual Time
Civil Twilight
Nautical Twilight
Astronomical Twilight
Moon
Length of Visible Light
Length of Day
Tomorrow will be .
, % of the Moon is Illuminated

Today's Extremes

State Highs State Lows

Community

WunderPhotos

Upload Photos

1,815,348 photos uploaded!

WunderBlogs® & News

Nearby

Air Quality

  Air Quality AQ Index Pollutant
Not available.

Snow Depth

Station Depth Elevation

Earthquake Activity

City Distance Mag. Time & Date
Minimum magnitude displayed is 2.5.

Coastal Water Temperatures

Place Temperature

Stations

Nearby Weather Stations

Station Location Temp. Windchill Dew Point Humidity Wind Precip. Elev Updated Type